LPMA Airport Information

Runway Information
Runway 05 Length 9110 ft width 148 ft
Elevation 147 ft Threshold 480 ft Heading 45
Runway 23 Length 9110 ft Width 148 ft
Elevation 192 ft Threshold 490 ft Heading 225
Airport Frequencies
Type APP Name APP Frequency 119.2 MHZ
Type TWR Name TWR Frequency 118.35 MHZ
Airport Navaids
Type VOR-DME Name Madeira Frequency 112200 KHZ
Type NDB Name Madeira Frequency 318 KHZ
Airport Weather Information & NOTAM
ADDS - METARS form results

(1019 UTC 23 March 2019)
Data provider http://aviationweather.gov/metar/data/
 
METAR text: LPMA 231000Z 02016KT 350V050 9999 FEW016 17/08 Q1020
Conditions at: LPMA (FUNCHAL/MADEIRA , PT) observed 1000 UTC 23 March 2019
Temperature: 17.0°C (63°F)
Dewpoint: 8.0°C (46°F) [RH = 55%]
Pressure (altimeter): 30.12 inches Hg (1020.0 mb)
Winds: from the NNE (20 degrees) at 18 MPH (16 knots; 8.2 m/s)
Visibility: 6 or more miles (10+ km)
Ceiling: at least 12,000 feet AGL
Clouds: few clouds at 1600 feet AGL
Weather: no significant weather observed at this time

METAR text: LPMA 230930Z 02013G26KT 320V040 9999 FEW016 17/08 Q1020
Conditions at: LPMA (FUNCHAL/MADEIRA , PT) observed 0930 UTC 23 March 2019
Temperature: 17.0°C (63°F)
Dewpoint: 8.0°C (46°F) [RH = 55%]
Pressure (altimeter): 30.12 inches Hg (1020.0 mb)
Winds: from the NNE (20 degrees) at 15 MPH (13 knots; 6.7 m/s)
gusting to 30 MPH (26 knots; 13.4 m/s)
Visibility: 6 or more miles (10+ km)
Ceiling: at least 12,000 feet AGL
Clouds: few clouds at 1600 feet AGL
Weather: no significant weather observed at this time

Forecast for: LPMA (FUNCHAL/MADEIRA , PT)
Text: TAF LPMA 230500Z 2306/2406 01015KT 9999 SCT015
Forecast period: 0600 UTC 23 March 2019 to 0600 UTC 24 March 2019
Forecast type: FROM: standard forecast or significant change
Winds: from the N (10 degrees) at 17 MPH (15 knots; 7.7 m/s)
Visibility: 6 or more miles 10+ km)
Ceiling: at least 12,000 feet AGL
Clouds: scattered clouds at 1500 feet AGL
Weather: no significant weather forecast for this period
Text: TEMPO 2306/2310 BKN015
Forecast period: 0600 to 1000 UTC 23 March 2019
Forecast type: TEMPORARY: The following changes expected for less than half the time period
Visibility: missing
Ceiling: 1500 feet AGL
Clouds: broken clouds at 1500 feet AGL
Weather: no significant weather forecast for this period
Text: PROB30
Forecast period: 0600 to 1200 UTC 23 March 2019
Forecast type: TEMPORARY: The following changes expected for less than half the time period
Winds: from the N (10 degrees) at 23 MPH (20 knots; 10.3 m/s)
gusting to 34 MPH (30 knots; 15.4 m/s)
Visibility: missing
Ceiling: unknown
Clouds: missing
Weather: no significant weather forecast for this period